sensor_id;sensor_type;location;lat;lon;timestamp;P1;durP1;ratioP1;P2;durP2;ratioP2
5871;SDS011;2962;51.312;7.378;2024-02-26T00:00:57;0.37;;;0.30;;
5871;SDS011;2962;51.312;7.378;2024-02-26T00:03:23;1.30;;;0.50;;
5871;SDS011;2962;51.312;7.378;2024-02-26T00:05:48;0.40;;;0.40;;
5871;SDS011;2962;51.312;7.378;2024-02-26T00:08:13;0.40;;;0.40;;
5871;SDS011;2962;51.312;7.378;2024-02-26T00:10:38;1.30;;;0.40;;
5871;SDS011;2962;51.312;7.378;2024-02-26T00:13:04;0.43;;;0.43;;
5871;SDS011;2962;51.312;7.378;2024-02-26T00:15:29;0.37;;;0.37;;
5871;SDS011;2962;51.312;7.378;2024-02-26T00:17:55;0.50;;;0.50;;
5871;SDS011;2962;51.312;7.378;2024-02-26T00:20:20;2.87;;;0.60;;
5871;SDS011;2962;51.312;7.378;2024-02-26T00:22:45;0.70;;;0.70;;
5871;SDS011;2962;51.312;7.378;2024-02-26T00:25:10;0.70;;;0.70;;
5871;SDS011;2962;51.312;7.378;2024-02-26T00:27:37;3.60;;;0.40;;
5871;SDS011;2962;51.312;7.378;2024-02-26T00:30:04;0.40;;;0.40;;
5871;SDS011;2962;51.312;7.378;2024-02-26T00:32:30;0.30;;;0.30;;
5871;SDS011;2962;51.312;7.378;2024-02-26T00:34:55;0.53;;;0.47;;
5871;SDS011;2962;51.312;7.378;2024-02-26T00:37:20;0.30;;;0.30;;
5871;SDS011;2962;51.312;7.378;2024-02-26T00:39:46;1.50;;;0.40;;
5871;SDS011;2962;51.312;7.378;2024-02-26T00:42:11;0.40;;;0.40;;
5871;SDS011;2962;51.312;7.378;2024-02-26T00:44:37;1.50;;;0.50;;
5871;SDS011;2962;51.312;7.378;2024-02-26T00:47:02;0.40;;;0.40;;
5871;SDS011;2962;51.312;7.378;2024-02-26T00:49:27;1.23;;;0.30;;
5871;SDS011;2962;51.312;7.378;2024-02-26T00:51:53;0.50;;;0.50;;
5871;SDS011;2962;51.312;7.378;2024-02-26T00:54:18;0.33;;;0.33;;
5871;SDS011;2962;51.312;7.378;2024-02-26T00:56:43;0.40;;;0.40;;
5871;SDS011;2962;51.312;7.378;2024-02-26T00:59:09;0.40;;;0.40;;
5871;SDS011;2962;51.312;7.378;2024-02-26T01:01:34;0.30;;;0.30;;
5871;SDS011;2962;51.312;7.378;2024-02-26T01:04:00;0.37;;;0.37;;
5871;SDS011;2962;51.312;7.378;2024-02-26T01:06:25;0.30;;;0.30;;
5871;SDS011;2962;51.312;7.378;2024-02-26T01:08:50;0.40;;;0.40;;
5871;SDS011;2962;51.312;7.378;2024-02-26T01:11:16;0.60;;;0.50;;
5871;SDS011;2962;51.312;7.378;2024-02-26T01:13:41;0.80;;;0.40;;
5871;SDS011;2962;51.312;7.378;2024-02-26T01:16:06;0.40;;;0.40;;
5871;SDS011;2962;51.312;7.378;2024-02-26T01:18:31;0.60;;;0.60;;
5871;SDS011;2962;51.312;7.378;2024-02-26T01:20:57;1.27;;;1.17;;
5871;SDS011;2962;51.312;7.378;2024-02-26T01:23:22;0.50;;;0.50;;
5871;SDS011;2962;51.312;7.378;2024-02-26T01:25:47;0.30;;;0.30;;
5871;SDS011;2962;51.312;7.378;2024-02-26T01:28:13;1.07;;;0.40;;
5871;SDS011;2962;51.312;7.378;2024-02-26T01:30:39;1.53;;;0.30;;
5871;SDS011;2962;51.312;7.378;2024-02-26T01:33:04;0.23;;;0.23;;
5871;SDS011;2962;51.312;7.378;2024-02-26T01:35:29;0.30;;;0.30;;
5871;SDS011;2962;51.312;7.378;2024-02-26T01:37:55;0.30;;;0.30;;
5871;SDS011;2962;51.312;7.378;2024-02-26T01:40:21;0.40;;;0.40;;
5871;SDS011;2962;51.312;7.378;2024-02-26T01:42:46;0.60;;;0.60;;
5871;SDS011;2962;51.312;7.378;2024-02-26T01:45:16;0.33;;;0.33;;
5871;SDS011;2962;51.312;7.378;2024-02-26T01:47:49;0.53;;;0.30;;
5871;SDS011;2962;51.312;7.378;2024-02-26T01:50:16;0.60;;;0.60;;
5871;SDS011;2962;51.312;7.378;2024-02-26T01:52:42;0.30;;;0.30;;
5871;SDS011;2962;51.312;7.378;2024-02-26T01:55:08;0.80;;;0.80;;
5871;SDS011;2962;51.312;7.378;2024-02-26T01:57:33;0.50;;;0.50;;
5871;SDS011;2962;51.312;7.378;2024-02-26T01:59:59;0.37;;;0.37;;
5871;SDS011;2962;51.312;7.378;2024-02-26T02:02:24;1.90;;;0.53;;
5871;SDS011;2962;51.312;7.378;2024-02-26T02:04:50;1.33;;;0.50;;
5871;SDS011;2962;51.312;7.378;2024-02-26T02:07:16;0.70;;;0.70;;
5871;SDS011;2962;51.312;7.378;2024-02-26T02:09:42;0.60;;;0.60;;
5871;SDS011;2962;51.312;7.378;2024-02-26T02:12:07;1.00;;;0.63;;
5871;SDS011;2962;51.312;7.378;2024-02-26T02:14:33;0.30;;;0.30;;
5871;SDS011;2962;51.312;7.378;2024-02-26T02:16:58;0.63;;;0.50;;
5871;SDS011;2962;51.312;7.378;2024-02-26T02:19:23;0.40;;;0.40;;
5871;SDS011;2962;51.312;7.378;2024-02-26T02:21:49;1.90;;;0.40;;
5871;SDS011;2962;51.312;7.378;2024-02-26T02:24:14;0.60;;;0.60;;
5871;SDS011;2962;51.312;7.378;2024-02-26T02:26:39;0.33;;;0.33;;
5871;SDS011;2962;51.312;7.378;2024-02-26T02:29:05;1.07;;;0.50;;
5871;SDS011;2962;51.312;7.378;2024-02-26T02:31:31;0.47;;;0.47;;
5871;SDS011;2962;51.312;7.378;2024-02-26T02:33:57;0.30;;;0.30;;
5871;SDS011;2962;51.312;7.378;2024-02-26T02:36:23;0.30;;;0.30;;
5871;SDS011;2962;51.312;7.378;2024-02-26T02:38:48;0.30;;;0.30;;
5871;SDS011;2962;51.312;7.378;2024-02-26T02:41:15;0.33;;;0.30;;
5871;SDS011;2962;51.312;7.378;2024-02-26T02:43:40;0.50;;;0.50;;
5871;SDS011;2962;51.312;7.378;2024-02-26T02:46:06;0.50;;;0.50;;
5871;SDS011;2962;51.312;7.378;2024-02-26T02:48:31;0.53;;;0.53;;
5871;SDS011;2962;51.312;7.378;2024-02-26T02:50:56;0.97;;;0.73;;
5871;SDS011;2962;51.312;7.378;2024-02-26T02:53:21;1.37;;;0.50;;
5871;SDS011;2962;51.312;7.378;2024-02-26T02:55:47;0.40;;;0.40;;
5871;SDS011;2962;51.312;7.378;2024-02-26T02:58:12;0.30;;;0.30;;
5871;SDS011;2962;51.312;7.378;2024-02-26T03:00:37;0.70;;;0.70;;
5871;SDS011;2962;51.312;7.378;2024-02-26T03:03:03;0.40;;;0.40;;
5871;SDS011;2962;51.312;7.378;2024-02-26T03:05:29;0.60;;;0.60;;
5871;SDS011;2962;51.312;7.378;2024-02-26T03:07:54;6.47;;;1.40;;
5871;SDS011;2962;51.312;7.378;2024-02-26T03:10:19;0.60;;;0.60;;
5871;SDS011;2962;51.312;7.378;2024-02-26T03:12:45;1.77;;;0.60;;
5871;SDS011;2962;51.312;7.378;2024-02-26T03:15:10;0.40;;;0.40;;
5871;SDS011;2962;51.312;7.378;2024-02-26T03:17:36;0.57;;;0.57;;
5871;SDS011;2962;51.312;7.378;2024-02-26T03:20:02;0.60;;;0.60;;
5871;SDS011;2962;51.312;7.378;2024-02-26T03:22:30;1.07;;;0.63;;
5871;SDS011;2962;51.312;7.378;2024-02-26T03:24:55;1.10;;;1.10;;
5871;SDS011;2962;51.312;7.378;2024-02-26T03:27:20;0.70;;;0.70;;
5871;SDS011;2962;51.312;7.378;2024-02-26T03:29:46;2.10;;;1.70;;
5871;SDS011;2962;51.312;7.378;2024-02-26T03:32:12;1.13;;;1.13;;
5871;SDS011;2962;51.312;7.378;2024-02-26T03:34:37;1.43;;;0.90;;
5871;SDS011;2962;51.312;7.378;2024-02-26T03:37:04;0.73;;;0.73;;
5871;SDS011;2962;51.312;7.378;2024-02-26T03:39:30;0.60;;;0.60;;
5871;SDS011;2962;51.312;7.378;2024-02-26T03:41:56;0.83;;;0.83;;
5871;SDS011;2962;51.312;7.378;2024-02-26T03:44:21;0.70;;;0.70;;
5871;SDS011;2962;51.312;7.378;2024-02-26T03:46:47;0.90;;;0.90;;
5871;SDS011;2962;51.312;7.378;2024-02-26T03:49:12;0.90;;;0.90;;
5871;SDS011;2962;51.312;7.378;2024-02-26T03:51:38;0.80;;;0.80;;
5871;SDS011;2962;51.312;7.378;2024-02-26T03:54:03;1.53;;;1.43;;
5871;SDS011;2962;51.312;7.378;2024-02-26T03:56:29;1.20;;;1.10;;
5871;SDS011;2962;51.312;7.378;2024-02-26T03:58:54;1.40;;;1.40;;
5871;SDS011;2962;51.312;7.378;2024-02-26T04:01:19;1.57;;;1.57;;
5871;SDS011;2962;51.312;7.378;2024-02-26T04:03:44;2.50;;;1.37;;
5871;SDS011;2962;51.312;7.378;2024-02-26T04:06:10;1.73;;;1.10;;
5871;SDS011;2962;51.312;7.378;2024-02-26T04:08:36;0.97;;;0.97;;
5871;SDS011;2962;51.312;7.378;2024-02-26T04:11:03;1.17;;;1.17;;
5871;SDS011;2962;51.312;7.378;2024-02-26T04:13:32;1.00;;;1.00;;
5871;SDS011;2962;51.312;7.378;2024-02-26T04:15:57;10.93;;;1.40;;
5871;SDS011;2962;51.312;7.378;2024-02-26T04:18:23;1.17;;;1.17;;
5871;SDS011;2962;51.312;7.378;2024-02-26T04:20:48;1.07;;;1.07;;
5871;SDS011;2962;51.312;7.378;2024-02-26T04:23:13;1.40;;;1.30;;
5871;SDS011;2962;51.312;7.378;2024-02-26T04:25:38;1.53;;;1.53;;
5871;SDS011;2962;51.312;7.378;2024-02-26T04:28:04;3.47;;;1.40;;
5871;SDS011;2962;51.312;7.378;2024-02-26T04:30:29;2.40;;;2.20;;
5871;SDS011;2962;51.312;7.378;2024-02-26T04:32:55;1.40;;;1.33;;
5871;SDS011;2962;51.312;7.378;2024-02-26T04:35:20;1.30;;;1.30;;
5871;SDS011;2962;51.312;7.378;2024-02-26T04:37:45;1.47;;;1.33;;
5871;SDS011;2962;51.312;7.378;2024-02-26T04:40:10;2.53;;;2.43;;
5871;SDS011;2962;51.312;7.378;2024-02-26T04:42:36;1.70;;;1.70;;
5871;SDS011;2962;51.312;7.378;2024-02-26T04:45:01;2.33;;;2.10;;
5871;SDS011;2962;51.312;7.378;2024-02-26T04:47:27;1.37;;;1.37;;
5871;SDS011;2962;51.312;7.378;2024-02-26T04:49:52;4.40;;;2.00;;
5871;SDS011;2962;51.312;7.378;2024-02-26T04:52:18;1.77;;;1.67;;
5871;SDS011;2962;51.312;7.378;2024-02-26T04:54:43;1.70;;;1.70;;
5871;SDS011;2962;51.312;7.378;2024-02-26T04:57:09;1.87;;;1.87;;
5871;SDS011;2962;51.312;7.378;2024-02-26T04:59:34;2.63;;;1.70;;
5871;SDS011;2962;51.312;7.378;2024-02-26T05:01:59;2.23;;;2.13;;
5871;SDS011;2962;51.312;7.378;2024-02-26T05:04:24;1.90;;;1.90;;
5871;SDS011;2962;51.312;7.378;2024-02-26T05:06:50;2.10;;;2.10;;
5871;SDS011;2962;51.312;7.378;2024-02-26T05:09:15;2.27;;;2.10;;
5871;SDS011;2962;51.312;7.378;2024-02-26T05:11:41;3.30;;;1.90;;
5871;SDS011;2962;51.312;7.378;2024-02-26T05:14:06;1.93;;;1.93;;
5871;SDS011;2962;51.312;7.378;2024-02-26T05:16:31;2.20;;;2.20;;
5871;SDS011;2962;51.312;7.378;2024-02-26T05:18:57;9.47;;;2.43;;
5871;SDS011;2962;51.312;7.378;2024-02-26T05:21:22;2.97;;;2.87;;
5871;SDS011;2962;51.312;7.378;2024-02-26T05:23:47;2.83;;;2.73;;
5871;SDS011;2962;51.312;7.378;2024-02-26T05:26:19;2.53;;;2.53;;
5871;SDS011;2962;51.312;7.378;2024-02-26T05:28:47;4.63;;;3.10;;
5871;SDS011;2962;51.312;7.378;2024-02-26T05:31:13;2.23;;;2.23;;
5871;SDS011;2962;51.312;7.378;2024-02-26T05:33:39;2.50;;;2.50;;
5871;SDS011;2962;51.312;7.378;2024-02-26T05:36:04;3.10;;;3.00;;
5871;SDS011;2962;51.312;7.378;2024-02-26T05:38:30;2.87;;;2.77;;
5871;SDS011;2962;51.312;7.378;2024-02-26T05:40:56;3.28;;;3.00;;
5871;SDS011;2962;51.312;7.378;2024-02-26T05:43:22;4.13;;;3.60;;
5871;SDS011;2962;51.312;7.378;2024-02-26T05:45:47;2.90;;;2.80;;
5871;SDS011;2962;51.312;7.378;2024-02-26T05:48:12;3.73;;;3.53;;
5871;SDS011;2962;51.312;7.378;2024-02-26T05:50:38;3.90;;;3.70;;
5871;SDS011;2962;51.312;7.378;2024-02-26T05:53:03;3.93;;;3.20;;
5871;SDS011;2962;51.312;7.378;2024-02-26T05:55:28;3.50;;;3.30;;
5871;SDS011;2962;51.312;7.378;2024-02-26T05:57:54;3.23;;;3.13;;
5871;SDS011;2962;51.312;7.378;2024-02-26T06:00:19;3.67;;;3.33;;
5871;SDS011;2962;51.312;7.378;2024-02-26T06:02:44;4.10;;;3.80;;
5871;SDS011;2962;51.312;7.378;2024-02-26T06:05:10;3.37;;;3.27;;
5871;SDS011;2962;51.312;7.378;2024-02-26T06:07:35;3.53;;;3.43;;
5871;SDS011;2962;51.312;7.378;2024-02-26T06:10:01;3.50;;;3.30;;
5871;SDS011;2962;51.312;7.378;2024-02-26T06:12:27;3.80;;;3.50;;
5871;SDS011;2962;51.312;7.378;2024-02-26T06:14:53;5.03;;;4.07;;
5871;SDS011;2962;51.312;7.378;2024-02-26T06:17:19;3.70;;;3.47;;
5871;SDS011;2962;51.312;7.378;2024-02-26T06:19:44;4.40;;;3.67;;
5871;SDS011;2962;51.312;7.378;2024-02-26T06:22:09;3.43;;;3.10;;
5871;SDS011;2962;51.312;7.378;2024-02-26T06:24:35;3.60;;;3.50;;
5871;SDS011;2962;51.312;7.378;2024-02-26T06:27:02;6.33;;;4.00;;
5871;SDS011;2962;51.312;7.378;2024-02-26T06:29:27;3.57;;;3.37;;
5871;SDS011;2962;51.312;7.378;2024-02-26T06:31:53;3.50;;;3.30;;
5871;SDS011;2962;51.312;7.378;2024-02-26T06:34:18;4.00;;;3.60;;
5871;SDS011;2962;51.312;7.378;2024-02-26T06:36:43;3.70;;;3.50;;
5871;SDS011;2962;51.312;7.378;2024-02-26T06:39:08;4.53;;;3.30;;
5871;SDS011;2962;51.312;7.378;2024-02-26T06:41:35;3.75;;;3.35;;
5871;SDS011;2962;51.312;7.378;2024-02-26T06:44:01;3.90;;;3.60;;
5871;SDS011;2962;51.312;7.378;2024-02-26T06:46:27;4.10;;;3.80;;
5871;SDS011;2962;51.312;7.378;2024-02-26T06:48:55;7.07;;;4.33;;
5871;SDS011;2962;51.312;7.378;2024-02-26T06:51:21;4.23;;;4.03;;
5871;SDS011;2962;51.312;7.378;2024-02-26T06:53:46;4.10;;;3.80;;
5871;SDS011;2962;51.312;7.378;2024-02-26T06:56:12;4.33;;;4.03;;
5871;SDS011;2962;51.312;7.378;2024-02-26T06:58:37;4.30;;;4.10;;
5871;SDS011;2962;51.312;7.378;2024-02-26T07:01:03;3.97;;;3.87;;
5871;SDS011;2962;51.312;7.378;2024-02-26T07:03:29;4.57;;;4.13;;
5871;SDS011;2962;51.312;7.378;2024-02-26T07:05:55;3.70;;;3.40;;
5871;SDS011;2962;51.312;7.378;2024-02-26T07:08:20;3.73;;;3.63;;
5871;SDS011;2962;51.312;7.378;2024-02-26T07:10:46;5.00;;;3.90;;
5871;SDS011;2962;51.312;7.378;2024-02-26T07:13:11;4.60;;;4.10;;
5871;SDS011;2962;51.312;7.378;2024-02-26T07:15:37;4.50;;;3.80;;
5871;SDS011;2962;51.312;7.378;2024-02-26T07:18:02;3.23;;;3.10;;
5871;SDS011;2962;51.312;7.378;2024-02-26T07:20:28;4.13;;;3.93;;
5871;SDS011;2962;51.312;7.378;2024-02-26T07:22:55;4.27;;;4.00;;
5871;SDS011;2962;51.312;7.378;2024-02-26T07:25:20;4.40;;;4.10;;
5871;SDS011;2962;51.312;7.378;2024-02-26T07:27:46;4.20;;;3.87;;
5871;SDS011;2962;51.312;7.378;2024-02-26T07:30:11;2.80;;;2.70;;
5871;SDS011;2962;51.312;7.378;2024-02-26T07:32:37;3.10;;;2.80;;
5871;SDS011;2962;51.312;7.378;2024-02-26T07:35:02;6.60;;;3.20;;
5871;SDS011;2962;51.312;7.378;2024-02-26T07:37:28;3.57;;;3.17;;
5871;SDS011;2962;51.312;7.378;2024-02-26T07:39:53;6.00;;;3.40;;
5871;SDS011;2962;51.312;7.378;2024-02-26T07:42:19;3.10;;;2.90;;
5871;SDS011;2962;51.312;7.378;2024-02-26T07:44:44;3.90;;;2.47;;
5871;SDS011;2962;51.312;7.378;2024-02-26T07:47:09;2.13;;;2.13;;
5871;SDS011;2962;51.312;7.378;2024-02-26T07:49:35;2.00;;;1.90;;
5871;SDS011;2962;51.312;7.378;2024-02-26T07:52:00;2.33;;;2.20;;
5871;SDS011;2962;51.312;7.378;2024-02-26T07:54:25;2.70;;;2.70;;
5871;SDS011;2962;51.312;7.378;2024-02-26T07:56:50;4.97;;;3.00;;
5871;SDS011;2962;51.312;7.378;2024-02-26T07:59:16;3.40;;;3.20;;
5871;SDS011;2962;51.312;7.378;2024-02-26T08:01:41;3.13;;;2.97;;
5871;SDS011;2962;51.312;7.378;2024-02-26T08:04:07;3.10;;;3.00;;
5871;SDS011;2962;51.312;7.378;2024-02-26T08:06:32;2.70;;;2.70;;
5871;SDS011;2962;51.312;7.378;2024-02-26T08:08:57;2.60;;;2.50;;
5871;SDS011;2962;51.312;7.378;2024-02-26T08:11:23;2.73;;;2.53;;
5871;SDS011;2962;51.312;7.378;2024-02-26T08:13:48;2.40;;;2.30;;
5871;SDS011;2962;51.312;7.378;2024-02-26T08:16:13;6.00;;;3.17;;
5871;SDS011;2962;51.312;7.378;2024-02-26T08:18:38;2.53;;;2.30;;
5871;SDS011;2962;51.312;7.378;2024-02-26T08:21:04;2.80;;;2.70;;
5871;SDS011;2962;51.312;7.378;2024-02-26T08:23:29;2.70;;;2.60;;
5871;SDS011;2962;51.312;7.378;2024-02-26T08:25:56;3.70;;;2.60;;
5871;SDS011;2962;51.312;7.378;2024-02-26T08:28:21;2.70;;;2.50;;
5871;SDS011;2962;51.312;7.378;2024-02-26T08:30:46;3.10;;;2.90;;
5871;SDS011;2962;51.312;7.378;2024-02-26T08:33:11;3.37;;;2.80;;
5871;SDS011;2962;51.312;7.378;2024-02-26T08:35:38;4.93;;;3.00;;
5871;SDS011;2962;51.312;7.378;2024-02-26T08:38:03;3.07;;;2.97;;
5871;SDS011;2962;51.312;7.378;2024-02-26T08:40:29;2.80;;;2.70;;
5871;SDS011;2962;51.312;7.378;2024-02-26T08:42:54;3.73;;;3.30;;
5871;SDS011;2962;51.312;7.378;2024-02-26T08:45:20;3.50;;;3.30;;
5871;SDS011;2962;51.312;7.378;2024-02-26T08:47:45;2.83;;;2.83;;
5871;SDS011;2962;51.312;7.378;2024-02-26T08:50:11;3.30;;;3.10;;
5871;SDS011;2962;51.312;7.378;2024-02-26T08:52:37;3.00;;;2.70;;
5871;SDS011;2962;51.312;7.378;2024-02-26T08:55:03;2.87;;;2.77;;
5871;SDS011;2962;51.312;7.378;2024-02-26T08:57:28;2.47;;;2.33;;
5871;SDS011;2962;51.312;7.378;2024-02-26T08:59:53;2.50;;;2.40;;
5871;SDS011;2962;51.312;7.378;2024-02-26T09:02:19;3.07;;;2.97;;
5871;SDS011;2962;51.312;7.378;2024-02-26T09:04:44;3.27;;;3.10;;
5871;SDS011;2962;51.312;7.378;2024-02-26T09:07:10;3.43;;;3.10;;
5871;SDS011;2962;51.312;7.378;2024-02-26T09:09:35;3.40;;;3.00;;
5871;SDS011;2962;51.312;7.378;2024-02-26T09:12:01;7.30;;;3.00;;
5871;SDS011;2962;51.312;7.378;2024-02-26T09:14:27;2.87;;;2.70;;
5871;SDS011;2962;51.312;7.378;2024-02-26T09:16:52;4.13;;;2.60;;
5871;SDS011;2962;51.312;7.378;2024-02-26T09:19:17;3.00;;;2.80;;
5871;SDS011;2962;51.312;7.378;2024-02-26T09:21:43;3.30;;;3.20;;
5871;SDS011;2962;51.312;7.378;2024-02-26T09:24:09;5.10;;;3.77;;
5871;SDS011;2962;51.312;7.378;2024-02-26T09:26:34;3.63;;;3.37;;
5871;SDS011;2962;51.312;7.378;2024-02-26T09:29:00;8.13;;;3.43;;
5871;SDS011;2962;51.312;7.378;2024-02-26T09:31:25;4.63;;;4.23;;
5871;SDS011;2962;51.312;7.378;2024-02-26T09:33:50;4.10;;;3.70;;
5871;SDS011;2962;51.312;7.378;2024-02-26T09:36:15;6.67;;;4.63;;
5871;SDS011;2962;51.312;7.378;2024-02-26T09:38:41;4.80;;;3.90;;
5871;SDS011;2962;51.312;7.378;2024-02-26T09:41:06;3.83;;;3.63;;
5871;SDS011;2962;51.312;7.378;2024-02-26T09:43:35;4.67;;;3.73;;
5871;SDS011;2962;51.312;7.378;2024-02-26T09:46:04;4.40;;;4.10;;
5871;SDS011;2962;51.312;7.378;2024-02-26T09:48:30;5.00;;;4.40;;
5871;SDS011;2962;51.312;7.378;2024-02-26T09:50:56;3.87;;;3.67;;
5871;SDS011;2962;51.312;7.378;2024-02-26T09:53:22;4.07;;;3.50;;
5871;SDS011;2962;51.312;7.378;2024-02-26T09:55:47;4.37;;;4.17;;
5871;SDS011;2962;51.312;7.378;2024-02-26T09:58:13;4.03;;;3.73;;
5871;SDS011;2962;51.312;7.378;2024-02-26T10:00:43;3.87;;;3.60;;
5871;SDS011;2962;51.312;7.378;2024-02-26T10:03:16;4.43;;;4.10;;
5871;SDS011;2962;51.312;7.378;2024-02-26T10:05:43;3.73;;;3.53;;
5871;SDS011;2962;51.312;7.378;2024-02-26T10:08:10;4.70;;;4.33;;
5871;SDS011;2962;51.312;7.378;2024-02-26T10:10:36;4.10;;;3.80;;
5871;SDS011;2962;51.312;7.378;2024-02-26T10:13:02;4.13;;;3.67;;
5871;SDS011;2962;51.312;7.378;2024-02-26T10:15:28;4.67;;;3.80;;
5871;SDS011;2962;51.312;7.378;2024-02-26T10:17:54;4.10;;;3.80;;
5871;SDS011;2962;51.312;7.378;2024-02-26T10:20:19;4.37;;;4.10;;
5871;SDS011;2962;51.312;7.378;2024-02-26T10:22:48;4.00;;;3.80;;
5871;SDS011;2962;51.312;7.378;2024-02-26T10:25:13;3.90;;;3.70;;
5871;SDS011;2962;51.312;7.378;2024-02-26T10:27:42;3.87;;;3.67;;
5871;SDS011;2962;51.312;7.378;2024-02-26T10:30:20;7.43;;;4.60;;
5871;SDS011;2962;51.312;7.378;2024-02-26T10:32:47;6.23;;;4.73;;
5871;SDS011;2962;51.312;7.378;2024-02-26T10:35:14;4.90;;;4.50;;
5871;SDS011;2962;51.312;7.378;2024-02-26T10:37:43;3.93;;;3.73;;
5871;SDS011;2962;51.312;7.378;2024-02-26T10:40:09;4.53;;;4.23;;
5871;SDS011;2962;51.312;7.378;2024-02-26T10:42:38;8.57;;;4.47;;
5871;SDS011;2962;51.312;7.378;2024-02-26T10:45:04;4.83;;;4.53;;
5871;SDS011;2962;51.312;7.378;2024-02-26T10:47:31;4.50;;;4.17;;
5871;SDS011;2962;51.312;7.378;2024-02-26T10:49:58;5.67;;;4.70;;
5871;SDS011;2962;51.312;7.378;2024-02-26T10:52:23;4.20;;;4.00;;
5871;SDS011;2962;51.312;7.378;2024-02-26T10:54:50;4.17;;;3.80;;
5871;SDS011;2962;51.312;7.378;2024-02-26T10:57:19;4.57;;;4.20;;
5871;SDS011;2962;51.312;7.378;2024-02-26T10:59:46;3.77;;;3.57;;
5871;SDS011;2962;51.312;7.378;2024-02-26T11:02:13;4.70;;;4.40;;
5871;SDS011;2962;51.312;7.378;2024-02-26T11:04:39;4.10;;;3.90;;
5871;SDS011;2962;51.312;7.378;2024-02-26T11:07:04;6.73;;;4.80;;
5871;SDS011;2962;51.312;7.378;2024-02-26T11:09:31;5.20;;;4.80;;
5871;SDS011;2962;51.312;7.378;2024-02-26T11:11:57;5.00;;;4.60;;
5871;SDS011;2962;51.312;7.378;2024-02-26T11:14:24;5.70;;;5.20;;
5871;SDS011;2962;51.312;7.378;2024-02-26T11:16:51;5.37;;;4.87;;
5871;SDS011;2962;51.312;7.378;2024-02-26T11:19:16;6.83;;;5.53;;
5871;SDS011;2962;51.312;7.378;2024-02-26T11:21:42;5.67;;;5.17;;
5871;SDS011;2962;51.312;7.378;2024-02-26T11:24:14;7.40;;;5.10;;
5871;SDS011;2962;51.312;7.378;2024-02-26T11:26:49;5.73;;;5.30;;
5871;SDS011;2962;51.312;7.378;2024-02-26T11:29:24;6.17;;;5.57;;
5871;SDS011;2962;51.312;7.378;2024-02-26T11:31:52;5.53;;;4.97;;
5871;SDS011;2962;51.312;7.378;2024-02-26T11:34:18;6.33;;;5.83;;
5871;SDS011;2962;51.312;7.378;2024-02-26T11:36:43;5.63;;;5.13;;
5871;SDS011;2962;51.312;7.378;2024-02-26T11:39:11;6.17;;;5.57;;
5871;SDS011;2962;51.312;7.378;2024-02-26T11:41:38;13.13;;;6.30;;
5871;SDS011;2962;51.312;7.378;2024-02-26T11:44:03;12.80;;;7.07;;
5871;SDS011;2962;51.312;7.378;2024-02-26T11:46:32;6.57;;;6.03;;
5871;SDS011;2962;51.312;7.378;2024-02-26T11:49:29;7.27;;;6.53;;
5871;SDS011;2962;51.312;7.378;2024-02-26T11:51:52;8.27;;;7.47;;
5871;SDS011;2962;51.312;7.378;2024-02-26T11:54:37;8.17;;;6.80;;
5871;SDS011;2962;51.312;7.378;2024-02-26T11:57:25;12.80;;;7.73;;
5871;SDS011;2962;51.312;7.378;2024-02-26T11:59:55;10.53;;;7.57;;
5871;SDS011;2962;51.312;7.378;2024-02-26T12:05:16;9.50;;;7.17;;
5871;SDS011;2962;51.312;7.378;2024-02-26T12:07:45;10.83;;;8.13;;
5871;SDS011;2962;51.312;7.378;2024-02-26T12:10:25;13.20;;;8.53;;
5871;SDS011;2962;51.312;7.378;2024-02-26T12:13:00;17.37;;;8.63;;
5871;SDS011;2962;51.312;7.378;2024-02-26T12:15:37;15.00;;;10.00;;
5871;SDS011;2962;51.312;7.378;2024-02-26T12:18:05;10.23;;;8.00;;
5871;SDS011;2962;51.312;7.378;2024-02-26T12:20:32;9.47;;;8.40;;
5871;SDS011;2962;51.312;7.378;2024-02-26T12:22:57;14.83;;;11.10;;
5871;SDS011;2962;51.312;7.378;2024-02-26T12:25:24;12.70;;;8.90;;
5871;SDS011;2962;51.312;7.378;2024-02-26T12:27:51;9.07;;;8.17;;
5871;SDS011;2962;51.312;7.378;2024-02-26T12:30:17;10.80;;;8.53;;
5871;SDS011;2962;51.312;7.378;2024-02-26T12:32:43;9.10;;;7.87;;
5871;SDS011;2962;51.312;7.378;2024-02-26T12:35:08;8.00;;;7.20;;
5871;SDS011;2962;51.312;7.378;2024-02-26T12:37:34;8.90;;;6.00;;
5871;SDS011;2962;51.312;7.378;2024-02-26T12:40:02;7.20;;;6.60;;
5871;SDS011;2962;51.312;7.378;2024-02-26T12:42:29;7.70;;;7.00;;
5871;SDS011;2962;51.312;7.378;2024-02-26T12:44:58;8.13;;;6.80;;
5871;SDS011;2962;51.312;7.378;2024-02-26T12:47:23;7.40;;;6.70;;
5871;SDS011;2962;51.312;7.378;2024-02-26T12:49:48;6.37;;;5.87;;
5871;SDS011;2962;51.312;7.378;2024-02-26T12:52:14;11.70;;;5.53;;
5871;SDS011;2962;51.312;7.378;2024-02-26T12:54:41;6.30;;;5.80;;
5871;SDS011;2962;51.312;7.378;2024-02-26T12:57:07;6.17;;;5.47;;
5871;SDS011;2962;51.312;7.378;2024-02-26T12:59:34;5.73;;;5.23;;
5871;SDS011;2962;51.312;7.378;2024-02-26T13:02:01;7.23;;;5.27;;
5871;SDS011;2962;51.312;7.378;2024-02-26T13:04:28;5.13;;;4.40;;
5871;SDS011;2962;51.312;7.378;2024-02-26T13:06:55;5.03;;;4.70;;
5871;SDS011;2962;51.312;7.378;2024-02-26T13:09:20;6.03;;;5.43;;
5871;SDS011;2962;51.312;7.378;2024-02-26T13:11:52;5.40;;;4.90;;
5871;SDS011;2962;51.312;7.378;2024-02-26T13:14:19;5.10;;;4.70;;
5871;SDS011;2962;51.312;7.378;2024-02-26T13:16:45;5.10;;;4.70;;
5871;SDS011;2962;51.312;7.378;2024-02-26T13:19:19;5.33;;;4.83;;
5871;SDS011;2962;51.312;7.378;2024-02-26T13:21:44;4.60;;;4.30;;
5871;SDS011;2962;51.312;7.378;2024-02-26T13:24:12;4.97;;;4.67;;
5871;SDS011;2962;51.312;7.378;2024-02-26T13:26:38;4.63;;;4.40;;
5871;SDS011;2962;51.312;7.378;2024-02-26T13:29:03;5.40;;;5.00;;
5871;SDS011;2962;51.312;7.378;2024-02-26T13:31:28;5.60;;;4.77;;
5871;SDS011;2962;51.312;7.378;2024-02-26T13:33:54;5.27;;;4.97;;
5871;SDS011;2962;51.312;7.378;2024-02-26T13:36:21;4.77;;;4.37;;
5871;SDS011;2962;51.312;7.378;2024-02-26T13:38:53;5.40;;;4.90;;
5871;SDS011;2962;51.312;7.378;2024-02-26T13:41:20;5.83;;;5.33;;
5871;SDS011;2962;51.312;7.378;2024-02-26T13:43:46;5.27;;;4.97;;
5871;SDS011;2962;51.312;7.378;2024-02-26T13:46:12;5.53;;;5.03;;
5871;SDS011;2962;51.312;7.378;2024-02-26T13:48:39;6.37;;;5.17;;
5871;SDS011;2962;51.312;7.378;2024-02-26T13:51:04;4.40;;;4.20;;
5871;SDS011;2962;51.312;7.378;2024-02-26T13:53:30;6.30;;;5.80;;
5871;SDS011;2962;51.312;7.378;2024-02-26T13:55:55;5.63;;;5.13;;
5871;SDS011;2962;51.312;7.378;2024-02-26T13:58:20;6.50;;;5.87;;
5871;SDS011;2962;51.312;7.378;2024-02-26T14:00:48;7.80;;;5.33;;
5871;SDS011;2962;51.312;7.378;2024-02-26T14:03:14;6.70;;;5.87;;
5871;SDS011;2962;51.312;7.378;2024-02-26T14:05:39;7.83;;;5.30;;
5871;SDS011;2962;51.312;7.378;2024-02-26T14:08:05;6.10;;;5.70;;
5871;SDS011;2962;51.312;7.378;2024-02-26T14:10:31;4.60;;;4.40;;
5871;SDS011;2962;51.312;7.378;2024-02-26T14:12:57;6.17;;;5.50;;
5871;SDS011;2962;51.312;7.378;2024-02-26T14:15:22;6.37;;;4.70;;
5871;SDS011;2962;51.312;7.378;2024-02-26T14:17:49;5.90;;;5.40;;
5871;SDS011;2962;51.312;7.378;2024-02-26T14:20:19;5.37;;;4.87;;
5871;SDS011;2962;51.312;7.378;2024-02-26T14:22:45;6.80;;;5.00;;
5871;SDS011;2962;51.312;7.378;2024-02-26T14:25:10;4.97;;;4.67;;
5871;SDS011;2962;51.312;7.378;2024-02-26T14:27:36;5.20;;;4.77;;
5871;SDS011;2962;51.312;7.378;2024-02-26T14:30:01;6.50;;;5.90;;
5871;SDS011;2962;51.312;7.378;2024-02-26T14:32:27;6.60;;;5.87;;
5871;SDS011;2962;51.312;7.378;2024-02-26T14:34:52;6.80;;;5.90;;
5871;SDS011;2962;51.312;7.378;2024-02-26T14:37:18;8.53;;;5.53;;
5871;SDS011;2962;51.312;7.378;2024-02-26T14:39:43;5.30;;;4.90;;
5871;SDS011;2962;51.312;7.378;2024-02-26T14:42:08;5.03;;;4.70;;
5871;SDS011;2962;51.312;7.378;2024-02-26T14:44:33;5.30;;;5.00;;
5871;SDS011;2962;51.312;7.378;2024-02-26T14:46:59;5.10;;;4.70;;
5871;SDS011;2962;51.312;7.378;2024-02-26T14:49:25;5.20;;;4.70;;
5871;SDS011;2962;51.312;7.378;2024-02-26T14:51:50;5.10;;;4.40;;
5871;SDS011;2962;51.312;7.378;2024-02-26T14:54:15;5.30;;;4.80;;
5871;SDS011;2962;51.312;7.378;2024-02-26T14:56:41;6.23;;;5.87;;
5871;SDS011;2962;51.312;7.378;2024-02-26T14:59:06;5.97;;;5.40;;
5871;SDS011;2962;51.312;7.378;2024-02-26T15:01:32;6.37;;;5.97;;
5871;SDS011;2962;51.312;7.378;2024-02-26T15:03:57;6.73;;;6.03;;
5871;SDS011;2962;51.312;7.378;2024-02-26T15:06:24;6.50;;;6.00;;
5871;SDS011;2962;51.312;7.378;2024-02-26T15:08:49;8.70;;;7.80;;
5871;SDS011;2962;51.312;7.378;2024-02-26T15:11:14;9.57;;;8.50;;